Time;durP1;ratioP1;P1;durP2;ratioP2;P2;SDS_P1;SDS_P2;PMS_P1;PMS_P2;Temp;Humidity;BMP_temperature;BMP_pressure;BME280_temperature;BME280_humidity;BME280_pressure;Samples;Min_cycle;Max_cycle;Signal;HPM_P1;HPM_P2
2022/05/28 00:00:31;;;;;;;11.80;1.48;;;;;;;;;;4985828;28;20180;-69
2022/05/28 00:02:58;;;;;;;15.52;1.73;;;;;;;;;;4995129;28;20054;-69
2022/05/28 00:05:25;;;;;;;9.00;1.38;;;;;;;;;;4985870;28;20052;-66
2022/05/28 00:07:51;;;;;;;5.93;1.08;;;;;;;;;;5013668;28;20042;-68
2022/05/28 00:10:18;;;;;;;6.20;1.30;;;;;;;;;;5001407;28;20061;-68
2022/05/28 00:12:47;;;;;;;5.38;1.08;;;;;;;;;;5003719;28;20050;-68
2022/05/28 00:15:23;;;;;;;5.07;1.25;;;;;;;;;;4994043;28;20077;-66
2022/05/28 00:17:49;;;;;;;6.40;1.48;;;;;;;;;;4986288;28;20133;-68
2022/05/28 00:20:16;;;;;;;7.80;2.00;;;;;;;;;;5010936;28;20058;-68
2022/05/28 00:22:43;;;;;;;5.05;1.38;;;;;;;;;;5002882;28;20041;-67
2022/05/28 00:25:17;;;;;;;7.22;1.35;;;;;;;;;;5012288;28;20056;-68
2022/05/28 00:27:44;;;;;;;3.70;1.17;;;;;;;;;;4985679;28;20065;-66
2022/05/28 00:30:13;;;;;;;4.25;1.13;;;;;;;;;;5010054;28;20062;-67
2022/05/28 00:32:40;;;;;;;3.33;1.00;;;;;;;;;;5008662;28;20054;-67
2022/05/28 00:35:09;;;;;;;3.35;1.13;;;;;;;;;;5000265;28;20054;-67
2022/05/28 00:37:36;;;;;;;2.35;1.00;;;;;;;;;;4993895;28;20050;-67
2022/05/28 00:40:05;;;;;;;2.72;1.20;;;;;;;;;;5000626;28;20053;-68
2022/05/28 00:42:31;;;;;;;6.38;1.55;;;;;;;;;;5009189;28;20049;-67
2022/05/28 00:45:02;;;;;;;3.50;1.02;;;;;;;;;;4985333;28;20128;-67
2022/05/28 00:47:30;;;;;;;5.82;1.20;;;;;;;;;;4992779;28;20049;-69
2022/05/28 00:49:57;;;;;;;6.03;1.48;;;;;;;;;;5005499;28;20070;-68
2022/05/28 00:52:25;;;;;;;7.70;1.45;;;;;;;;;;4989323;28;20050;-67
2022/05/28 00:54:52;;;;;;;5.40;1.40;;;;;;;;;;5009595;28;20054;-68
2022/05/28 00:57:20;;;;;;;5.35;1.15;;;;;;;;;;5001226;28;20042;-69
2022/05/28 00:59:47;;;;;;;4.50;1.15;;;;;;;;;;5010479;28;20081;-68
2022/05/28 01:02:16;;;;;;;6.45;1.00;;;;;;;;;;5001962;28;20117;-69
2022/05/28 01:04:50;;;;;;;6.10;1.48;;;;;;;;;;4989872;28;20053;-68
2022/05/28 01:07:23;;;;;;;11.00;1.50;;;;;;;;;;4987119;28;20120;-68
2022/05/28 01:09:52;;;;;;;6.57;1.23;;;;;;;;;;4991290;28;20053;-67
2022/05/28 01:12:23;;;;;;;9.27;1.52;;;;;;;;;;4986652;28;20060;-67
2022/05/28 01:14:57;;;;;;;5.90;1.20;;;;;;;;;;4992663;28;20061;-67
2022/05/28 01:17:27;;;;;;;7.13;1.42;;;;;;;;;;4989880;28;20069;-67
2022/05/28 01:19:59;;;;;;;4.68;1.27;;;;;;;;;;4986956;28;20046;-68
2022/05/28 01:22:36;;;;;;;6.65;1.65;;;;;;;;;;4993517;28;20069;-67
2022/05/28 01:25:11;;;;;;;7.25;1.20;;;;;;;;;;4970540;28;20050;-68
2022/05/28 01:27:43;;;;;;;3.50;1.20;;;;;;;;;;4994029;28;20065;-67
2022/05/28 01:30:11;;;;;;;3.10;1.35;;;;;;;;;;4983742;28;20046;-66
2022/05/28 01:32:38;;;;;;;6.18;1.02;;;;;;;;;;4983646;28;20125;-68
2022/05/28 01:35:08;;;;;;;2.72;1.10;;;;;;;;;;4978293;28;20150;-69
2022/05/28 01:37:35;;;;;;;6.72;1.30;;;;;;;;;;4992966;28;20050;-67
2022/05/28 01:40:02;;;;;;;3.53;1.20;;;;;;;;;;4992964;28;20112;-67
2022/05/28 01:42:29;;;;;;;6.03;1.60;;;;;;;;;;4991711;28;20046;-67
2022/05/28 01:44:58;;;;;;;4.82;1.35;;;;;;;;;;4993744;28;20050;-67
2022/05/28 01:47:24;;;;;;;;;;;;;;;;;;4984881;28;20124;-66
2022/05/28 01:49:52;;;;;;;5.55;1.17;;;;;;;;;;4992467;28;19948;-67
2022/05/28 01:52:19;;;;;;;4.72;0.95;;;;;;;;;;4973062;28;20158;-66
2022/05/28 01:54:47;;;;;;;6.00;1.20;;;;;;;;;;4994675;28;20071;-68
2022/05/28 01:57:15;;;;;;;6.70;1.38;;;;;;;;;;4984671;28;20063;-68
2022/05/28 01:59:43;;;;;;;8.32;1.50;;;;;;;;;;4994628;28;20066;-68
2022/05/28 02:02:12;;;;;;;3.17;1.15;;;;;;;;;;4968013;28;20073;-67
2022/05/28 02:04:39;;;;;;;3.20;1.35;;;;;;;;;;4982337;28;20173;-67
2022/05/28 02:07:06;;;;;;;14.32;1.50;;;;;;;;;;4994678;28;20113;-67
2022/05/28 02:09:34;;;;;;;5.95;0.98;;;;;;;;;;4986379;28;20162;-67
2022/05/28 02:12:06;;;;;;;8.18;1.50;;;;;;;;;;4975752;28;20049;-67
2022/05/28 02:14:42;;;;;;;5.05;1.52;;;;;;;;;;4986052;28;20058;-67
2022/05/28 02:17:13;;;;;;;12.70;1.50;;;;;;;;;;4983901;28;20046;-67
2022/05/28 02:19:45;;;;;;;5.10;1.10;;;;;;;;;;4981105;28;20054;-68
2022/05/28 02:22:17;;;;;;;5.32;1.27;;;;;;;;;;4975209;28;20054;-68
2022/05/28 02:24:47;;;;;;;8.15;1.50;;;;;;;;;;4984967;28;20059;-67
2022/05/28 02:27:15;;;;;;;5.13;1.02;;;;;;;;;;4990787;28;20054;-67
2022/05/28 02:29:42;;;;;;;5.97;1.10;;;;;;;;;;4990857;28;20050;-67
2022/05/28 02:32:18;;;;;;;2.65;0.90;;;;;;;;;;4969850;28;20064;-67
2022/05/28 02:34:50;;;;;;;4.78;1.48;;;;;;;;;;4991222;28;20050;-67
2022/05/28 02:37:18;;;;;;;9.85;1.70;;;;;;;;;;4970116;28;20053;-67
2022/05/28 02:39:44;;;;;;;3.00;1.02;;;;;;;;;;4973999;28;20062;-68
2022/05/28 02:42:11;;;;;;;4.22;1.13;;;;;;;;;;4968827;28;20054;-68
2022/05/28 02:44:50;;;;;;;4.43;1.15;;;;;;;;;;4975027;28;20050;-67
2022/05/28 02:47:18;;;;;;;5.07;1.05;;;;;;;;;;4985511;28;20069;-66
2022/05/28 02:49:44;;;;;;;6.65;1.35;;;;;;;;;;4971021;28;20129;-69
2022/05/28 02:52:11;;;;;;;3.83;1.08;;;;;;;;;;4970766;28;20054;-68
2022/05/28 02:54:38;;;;;;;6.10;1.17;;;;;;;;;;4984300;28;20050;-68
2022/05/28 02:57:05;;;;;;;4.72;1.40;;;;;;;;;;4974376;28;20050;-68
2022/05/28 02:59:31;;;;;;;2.85;1.15;;;;;;;;;;4969066;28;20058;-67
2022/05/28 03:01:58;;;;;;;6.82;1.05;;;;;;;;;;4975161;28;20094;-66
2022/05/28 03:04:26;;;;;;;6.00;1.08;;;;;;;;;;4999094;28;20068;-67
2022/05/28 03:06:53;;;;;;;5.35;1.45;;;;;;;;;;4993862;28;20046;-67
2022/05/28 03:09:19;;;;;;;4.68;1.38;;;;;;;;;;4991650;28;20371;-68
2022/05/28 03:11:46;;;;;;;10.52;1.67;;;;;;;;;;5008314;28;20060;-67
2022/05/28 03:14:12;;;;;;;12.13;1.25;;;;;;;;;;4994525;28;20049;-67
2022/05/28 03:17:08;;;;;;;7.07;1.05;;;;;;;;;;5001385;28;20049;-67
2022/05/28 03:19:36;;;;;;;5.63;0.80;;;;;;;;;;4959529;28;20081;-67
2022/05/28 03:22:03;;;;;;;4.10;0.82;;;;;;;;;;4998812;28;20053;-67
2022/05/28 03:24:29;;;;;;;7.10;1.10;;;;;;;;;;4991600;28;20081;-68
2022/05/28 03:26:57;;;;;;;3.33;1.00;;;;;;;;;;4986986;28;20129;-67
2022/05/28 03:29:24;;;;;;;13.88;1.20;;;;;;;;;;4990922;28;20056;-67
2022/05/28 03:31:50;;;;;;;7.07;1.33;;;;;;;;;;4986273;28;20057;-67
2022/05/28 03:34:17;;;;;;;10.10;1.23;;;;;;;;;;5010003;28;20053;-66
2022/05/28 03:36:46;;;;;;;3.95;1.00;;;;;;;;;;5007959;28;20053;-68
2022/05/28 03:39:13;;;;;;;4.40;0.95;;;;;;;;;;5012159;28;20057;-68
2022/05/28 03:41:40;;;;;;;5.07;1.00;;;;;;;;;;4988858;28;20148;-66
2022/05/28 03:44:06;;;;;;;7.32;1.40;;;;;;;;;;5011275;28;20066;-68
2022/05/28 03:46:36;;;;;;;3.08;0.80;;;;;;;;;;5009380;28;20050;-67
2022/05/28 03:49:05;;;;;;;9.55;1.40;;;;;;;;;;4986531;28;20088;-67
2022/05/28 03:51:32;;;;;;;4.38;1.20;;;;;;;;;;4978210;28;20050;-68
2022/05/28 03:54:02;;;;;;;10.90;1.30;;;;;;;;;;4974464;28;20128;-67
2022/05/28 03:56:33;;;;;;;5.53;1.00;;;;;;;;;;4977812;28;20054;-69
2022/05/28 03:58:59;;;;;;;4.47;0.98;;;;;;;;;;4987297;28;20093;-68
2022/05/28 04:01:26;;;;;;;8.10;1.23;;;;;;;;;;5012843;28;20046;-67
2022/05/28 04:03:52;;;;;;;2.78;0.80;;;;;;;;;;4998217;28;20055;-67
2022/05/28 04:06:19;;;;;;;3.40;0.80;;;;;;;;;;5013969;28;20053;-67
2022/05/28 04:08:46;;;;;;;9.65;1.15;;;;;;;;;;4990924;28;20045;-67
2022/05/28 04:11:14;;;;;;;9.43;1.15;;;;;;;;;;5006752;28;20054;-68
2022/05/28 04:13:40;;;;;;;5.13;0.90;;;;;;;;;;4995965;28;20068;-68
2022/05/28 04:16:15;;;;;;;5.60;1.55;;;;;;;;;;5010407;28;20057;-69
2022/05/28 04:18:43;;;;;;;7.88;1.35;;;;;;;;;;5005053;28;20054;-68
2022/05/28 04:21:09;;;;;;;2.97;0.85;;;;;;;;;;5007615;28;20064;-68
2022/05/28 04:23:36;;;;;;;7.10;1.48;;;;;;;;;;5010303;28;20096;-67
2022/05/28 04:26:07;;;;;;;5.00;1.27;;;;;;;;;;5001851;28;20046;-69
2022/05/28 04:28:34;;;;;;;3.08;0.80;;;;;;;;;;4994262;28;20050;-68
2022/05/28 04:31:03;;;;;;;4.63;0.98;;;;;;;;;;4981132;28;20050;-67
2022/05/28 04:33:30;;;;;;;6.85;1.00;;;;;;;;;;4992959;28;20054;-66
2022/05/28 04:35:57;;;;;;;5.88;0.68;;;;;;;;;;4993606;28;20062;-68
2022/05/28 04:38:23;;;;;;;6.53;1.00;;;;;;;;;;5010738;28;20042;-68
2022/05/28 04:40:50;;;;;;;2.90;0.80;;;;;;;;;;5009643;28;20065;-67
2022/05/28 04:43:18;;;;;;;5.03;1.10;;;;;;;;;;4998341;28;20049;-66
2022/05/28 04:45:46;;;;;;;5.33;1.10;;;;;;;;;;5009904;28;20057;-66
2022/05/28 04:48:14;;;;;;;4.15;0.90;;;;;;;;;;4983379;28;20305;-67
2022/05/28 04:50:40;;;;;;;4.75;0.82;;;;;;;;;;5005791;28;20082;-66
2022/05/28 04:53:07;;;;;;;3.38;0.80;;;;;;;;;;4984521;28;20054;-67
2022/05/28 04:55:37;;;;;;;4.72;0.95;;;;;;;;;;4992879;28;20053;-66
2022/05/28 04:58:04;;;;;;;5.18;0.90;;;;;;;;;;5000890;28;20185;-67
2022/05/28 05:00:30;;;;;;;2.20;0.73;;;;;;;;;;4990005;28;20053;-67
2022/05/28 05:02:58;;;;;;;7.57;0.93;;;;;;;;;;4990047;28;20049;-66
2022/05/28 05:05:27;;;;;;;6.00;0.90;;;;;;;;;;4979237;28;20042;-66
2022/05/28 05:07:53;;;;;;;1.92;0.60;;;;;;;;;;4991484;28;20046;-66
2022/05/28 05:10:20;;;;;;;6.00;0.93;;;;;;;;;;4999777;28;20066;-66
2022/05/28 05:12:46;;;;;;;5.28;0.88;;;;;;;;;;4994321;28;20050;-66
2022/05/28 05:15:14;;;;;;;5.10;0.57;;;;;;;;;;4998629;28;20058;-67
2022/05/28 05:17:41;;;;;;;3.33;0.95;;;;;;;;;;5005202;28;20061;-66
2022/05/28 05:20:11;;;;;;;4.15;0.65;;;;;;;;;;5009480;28;20085;-66
2022/05/28 05:22:38;;;;;;;3.33;1.00;;;;;;;;;;4988615;28;20064;-67
2022/05/28 05:25:07;;;;;;;6.20;0.80;;;;;;;;;;4990292;28;20053;-67
2022/05/28 05:27:33;;;;;;;5.03;0.85;;;;;;;;;;5004095;28;20057;-66
2022/05/28 05:30:00;;;;;;;3.38;0.73;;;;;;;;;;5009257;28;20054;-66
2022/05/28 05:32:27;;;;;;;3.72;0.98;;;;;;;;;;5003810;28;20050;-66
2022/05/28 05:34:54;;;;;;;3.10;0.88;;;;;;;;;;4992844;28;20046;-65
2022/05/28 05:37:22;;;;;;;8.32;0.90;;;;;;;;;;5002146;28;20070;-67
2022/05/28 05:39:49;;;;;;;2.90;0.73;;;;;;;;;;5008750;28;20058;-66
2022/05/28 05:42:15;;;;;;;5.72;0.80;;;;;;;;;;5002795;28;20050;-67
2022/05/28 05:44:50;;;;;;;5.38;0.82;;;;;;;;;;5006981;28;20058;-65
2022/05/28 05:47:16;;;;;;;3.70;0.70;;;;;;;;;;4990392;28;20050;-65
2022/05/28 05:49:43;;;;;;;4.47;0.85;;;;;;;;;;5006964;28;20050;-66
2022/05/28 05:52:09;;;;;;;5.57;0.90;;;;;;;;;;4984529;28;20042;-66
2022/05/28 05:54:38;;;;;;;5.47;0.80;;;;;;;;;;5008685;28;20069;-65
2022/05/28 05:57:05;;;;;;;5.63;0.73;;;;;;;;;;5000944;28;20054;-65
2022/05/28 05:59:32;;;;;;;2.43;0.60;;;;;;;;;;5006013;28;20058;-67
2022/05/28 06:01:58;;;;;;;6.50;0.68;;;;;;;;;;4984308;28;20069;-66
2022/05/28 06:04:25;;;;;;;8.30;1.13;;;;;;;;;;5005110;28;20054;-66
2022/05/28 06:06:51;;;;;;;4.30;0.70;;;;;;;;;;5010479;28;20050;-66
2022/05/28 06:09:18;;;;;;;6.72;1.30;;;;;;;;;;5004223;28;20057;-67
2022/05/28 06:11:46;;;;;;;2.65;0.70;;;;;;;;;;5010440;28;20058;-66
2022/05/28 06:14:13;;;;;;;4.40;0.77;;;;;;;;;;5002766;28;20046;-66
2022/05/28 06:16:53;;;;;;;6.15;1.08;;;;;;;;;;5014134;28;20046;-66
2022/05/28 06:19:19;;;;;;;5.65;0.75;;;;;;;;;;5000882;28;20068;-66
2022/05/28 06:21:46;;;;;;;2.53;0.57;;;;;;;;;;5013330;28;20069;-66
2022/05/28 06:24:12;;;;;;;3.90;0.57;;;;;;;;;;5005928;28;20108;-66
2022/05/28 06:26:39;;;;;;;10.27;0.73;;;;;;;;;;5011647;28;20046;-67
2022/05/28 06:29:07;;;;;;;5.28;0.85;;;;;;;;;;5004398;28;20054;-67
2022/05/28 06:31:34;;;;;;;1.67;0.60;;;;;;;;;;5011481;28;20077;-68
2022/05/28 06:34:01;;;;;;;6.35;1.00;;;;;;;;;;5006972;28;20137;-67
2022/05/28 06:36:28;;;;;;;3.50;0.80;;;;;;;;;;5009939;28;20058;-66
2022/05/28 06:38:54;;;;;;;2.28;0.73;;;;;;;;;;5004467;28;20067;-66
2022/05/28 06:41:21;;;;;;;6.85;1.42;;;;;;;;;;4989651;28;20136;-66
2022/05/28 06:43:47;;;;;;;3.60;0.85;;;;;;;;;;4999844;28;20050;-67
2022/05/28 06:46:15;;;;;;;8.48;0.90;;;;;;;;;;5007269;28;20137;-66
2022/05/28 06:48:42;;;;;;;7.30;1.02;;;;;;;;;;4986454;28;20049;-66
2022/05/28 06:51:09;;;;;;;5.50;0.80;;;;;;;;;;4989724;28;20077;-66
2022/05/28 06:53:36;;;;;;;5.40;0.90;;;;;;;;;;5011023;28;20050;-67
2022/05/28 06:56:06;;;;;;;7.82;0.80;;;;;;;;;;5002354;28;20054;-66
2022/05/28 06:58:32;;;;;;;6.82;0.82;;;;;;;;;;5004830;28;20058;-66
2022/05/28 07:01:00;;;;;;;12.27;0.80;;;;;;;;;;5003761;28;20145;-67
2022/05/28 07:03:28;;;;;;;6.43;1.23;;;;;;;;;;5010472;28;20122;-66
2022/05/28 07:06:04;;;;;;;6.38;0.80;;;;;;;;;;5003670;28;20060;-66
2022/05/28 07:08:31;;;;;;;4.38;0.88;;;;;;;;;;5003926;28;20137;-66
2022/05/28 07:10:58;;;;;;;6.63;1.10;;;;;;;;;;5001838;28;20052;-67
2022/05/28 07:13:25;;;;;;;6.88;1.02;;;;;;;;;;4989937;28;20046;-66
2022/05/28 07:15:52;;;;;;;10.55;1.00;;;;;;;;;;4987987;28;20069;-68
2022/05/28 07:18:19;;;;;;;4.70;0.80;;;;;;;;;;5011014;28;20048;-68
2022/05/28 07:20:47;;;;;;;10.65;1.02;;;;;;;;;;5003800;28;20049;-66
2022/05/28 07:23:15;;;;;;;8.73;1.05;;;;;;;;;;5014399;28;20069;-66
2022/05/28 07:25:43;;;;;;;11.00;1.20;;;;;;;;;;4986956;28;20038;-67
2022/05/28 07:28:28;;;;;;;2.95;0.88;;;;;;;;;;4993551;28;20046;-67
2022/05/28 07:30:55;;;;;;;4.40;0.85;;;;;;;;;;4988479;28;20056;-66
2022/05/28 07:33:24;;;;;;;8.80;2.03;;;;;;;;;;4993906;28;20053;-67
2022/05/28 07:35:58;;;;;;;;;;;;;;;;;;4985974;28;20046;-67
2022/05/28 07:38:26;;;;;;;4.22;0.77;;;;;;;;;;4974247;28;19926;-67
2022/05/28 07:40:53;;;;;;;;;;;;;;;;;;4986088;28;20136;-67
2022/05/28 07:43:20;;;;;;;3.35;0.90;;;;;;;;;;4993536;28;19988;-67
2022/05/28 07:45:52;;;;;;;4.63;1.20;;;;;;;;;;4992776;28;20085;-67
2022/05/28 07:48:18;;;;;;;4.28;0.95;;;;;;;;;;5006840;28;20225;-68
2022/05/28 07:50:45;;;;;;;9.63;0.90;;;;;;;;;;4990657;28;20049;-69
2022/05/28 07:53:12;;;;;;;5.18;0.70;;;;;;;;;;4997912;28;20053;-69
2022/05/28 07:55:43;;;;;;;8.40;1.00;;;;;;;;;;5007766;28;20046;-70
2022/05/28 07:58:11;;;;;;;6.78;1.55;;;;;;;;;;5014955;28;20073;-70
2022/05/28 08:00:39;;;;;;;8.52;1.00;;;;;;;;;;5009088;28;20056;-69
2022/05/28 08:03:06;;;;;;;4.23;0.80;;;;;;;;;;4982450;28;20146;-69
2022/05/28 08:05:41;;;;;;;5.43;1.00;;;;;;;;;;4979863;28;20042;-69
2022/05/28 08:08:09;;;;;;;3.38;0.80;;;;;;;;;;4984106;28;20118;-69
2022/05/28 08:10:36;;;;;;;6.40;1.02;;;;;;;;;;4978588;28;20089;-69
2022/05/28 08:13:04;;;;;;;5.43;1.25;;;;;;;;;;4993711;28;20059;-70
2022/05/28 08:15:32;;;;;;;10.43;3.30;;;;;;;;;;4972193;28;20058;-69
2022/05/28 08:17:58;;;;;;;5.88;1.50;;;;;;;;;;4968402;28;20042;-69
2022/05/28 08:23:08;;;;;;;4.50;1.00;;;;;;;;;;4966365;28;20054;-69
2022/05/28 08:23:11;;;;;;;9.57;1.27;;;;;;;;;;4963915;28;20143;-70
2022/05/28 08:25:40;;;;;;;7.07;0.90;;;;;;;;;;4966634;28;20053;-70
2022/05/28 08:28:09;;;;;;;5.07;1.20;;;;;;;;;;4991365;28;20046;-69
2022/05/28 08:30:35;;;;;;;6.57;0.95;;;;;;;;;;4982658;28;20058;-69
2022/05/28 08:33:02;;;;;;;5.88;1.20;;;;;;;;;;4990398;28;20054;-69
2022/05/28 08:35:29;;;;;;;3.28;0.77;;;;;;;;;;4983589;28;20050;-69
2022/05/28 08:37:56;;;;;;;4.95;1.00;;;;;;;;;;4964235;28;20141;-69
2022/05/28 08:40:24;;;;;;;4.97;0.90;;;;;;;;;;4969201;28;20090;-69
2022/05/28 08:42:50;;;;;;;7.10;1.23;;;;;;;;;;4990353;28;20053;-70
2022/05/28 08:45:21;;;;;;;5.00;0.82;;;;;;;;;;4973251;28;20050;-70
2022/05/28 08:47:49;;;;;;;7.10;1.38;;;;;;;;;;4999333;28;20134;-70
2022/05/28 08:50:16;;;;;;;;;;;;;;;;;;5003297;28;20034;-71
2022/05/28 08:52:45;;;;;;;5.88;1.65;;;;;;;;;;4971960;28;19929;-69
2022/05/28 08:55:17;;;;;;;4.88;1.10;;;;;;;;;;4975032;28;20122;-70
2022/05/28 08:57:57;;;;;;;7.57;1.45;;;;;;;;;;4967231;28;20081;-70
2022/05/28 09:00:29;;;;;;;5.50;0.80;;;;;;;;;;4973291;28;20054;-69
2022/05/28 09:03:01;;;;;;;6.63;1.23;;;;;;;;;;4989959;28;20065;-69
2022/05/28 09:05:29;;;;;;;6.90;0.77;;;;;;;;;;5008315;28;20061;-71
2022/05/28 09:07:58;;;;;;;6.82;0.80;;;;;;;;;;4993980;28;20046;-71
2022/05/28 09:10:25;;;;;;;4.68;0.88;;;;;;;;;;5017184;28;20060;-71
2022/05/28 09:12:54;;;;;;;3.13;0.80;;;;;;;;;;5030210;28;20144;-72
2022/05/28 09:15:21;;;;;;;4.32;0.75;;;;;;;;;;5021449;28;20115;-69
2022/05/28 09:17:51;;;;;;;10.88;1.13;;;;;;;;;;5016594;28;20050;-69
2022/05/28 09:20:20;;;;;;;7.57;0.95;;;;;;;;;;4982452;28;20042;-69
2022/05/28 09:22:47;;;;;;;3.85;0.80;;;;;;;;;;4980552;28;20050;-71
2022/05/28 09:25:15;;;;;;;5.57;1.27;;;;;;;;;;5005547;28;20042;-72
2022/05/28 09:27:42;;;;;;;;;;;;;;;;;;5009792;28;20054;-72
2022/05/28 09:30:19;;;;;;;8.27;0.90;;;;;;;;;;5002186;28;19925;-71
2022/05/28 09:33:00;;;;;;;11.88;1.33;;;;;;;;;;5008830;28;20056;-71
2022/05/28 09:35:34;;;;;;;6.72;1.00;;;;;;;;;;4980308;28;20054;-72
2022/05/28 09:38:02;;;;;;;7.75;1.05;;;;;;;;;;5008084;28;20042;-73
2022/05/28 09:40:35;;;;;;;7.38;1.63;;;;;;;;;;5003841;28;20054;-72
2022/05/28 09:43:17;;;;;;;7.70;1.23;;;;;;;;;;4991662;28;20046;-72
2022/05/28 09:45:48;;;;;;;6.18;1.10;;;;;;;;;;4992423;28;20057;-67
2022/05/28 09:48:19;;;;;;;7.10;1.15;;;;;;;;;;4988783;28;20054;-67
2022/05/28 09:50:47;;;;;;;8.23;1.73;;;;;;;;;;4972287;28;20083;-70
2022/05/28 09:56:08;;;;;;;8.52;1.92;;;;;;;;;;4987013;28;20133;-67
2022/05/28 09:58:37;;;;;;;10.20;1.65;;;;;;;;;;5008300;28;20053;-69
2022/05/28 10:01:03;;;;;;;;;;;;;;;;;;5007422;28;20097;-67
2022/05/28 10:06:17;;;;;;;4.68;0.98;;;;;;;;;;5007607;28;20099;-72
2022/05/28 10:08:43;;;;;;;4.78;0.90;;;;;;;;;;4974591;28;20051;-74
2022/05/28 10:11:13;;;;;;;7.05;1.13;;;;;;;;;;4968558;28;20043;-68
2022/05/28 10:13:45;;;;;;;7.75;1.23;;;;;;;;;;4996360;28;20049;-69
2022/05/28 10:16:13;;;;;;;4.20;0.90;;;;;;;;;;4991055;28;20077;-71
2022/05/28 10:18:41;;;;;;;11.73;1.67;;;;;;;;;;4967809;28;20054;-70
2022/05/28 10:21:09;;;;;;;5.68;1.20;;;;;;;;;;4989015;28;20312;-69
2022/05/28 10:23:39;;;;;;;4.60;0.65;;;;;;;;;;4978998;28;20145;-71
2022/05/28 10:26:11;;;;;;;12.50;2.03;;;;;;;;;;5007898;28;20077;-71
2022/05/28 10:28:45;;;;;;;7.75;1.20;;;;;;;;;;5002134;28;20050;-68
2022/05/28 10:31:16;;;;;;;3.88;0.93;;;;;;;;;;5007751;28;20077;-69
2022/05/28 10:33:44;;;;;;;5.68;1.10;;;;;;;;;;4992282;28;20089;-69
2022/05/28 10:36:14;;;;;;;10.55;1.42;;;;;;;;;;4988443;28;20054;-74
2022/05/28 10:38:42;;;;;;;5.97;1.30;;;;;;;;;;4990236;28;20053;-68
2022/05/28 10:41:16;;;;;;;4.82;1.15;;;;;;;;;;5007139;28;20054;-71
2022/05/28 10:43:42;;;;;;;6.07;1.02;;;;;;;;;;4994310;28;20046;-71
2022/05/28 10:46:21;;;;;;;10.95;1.60;;;;;;;;;;4988273;28;20042;-69
2022/05/28 10:48:55;;;;;;;11.82;1.30;;;;;;;;;;4967129;28;20065;-72
2022/05/28 10:51:28;;;;;;;5.82;1.30;;;;;;;;;;4988458;28;20058;-73
2022/05/28 10:54:11;;;;;;;7.32;1.00;;;;;;;;;;4987507;28;20046;-74
2022/05/28 10:56:48;;;;;;;8.90;1.30;;;;;;;;;;5007473;28;20137;-72
2022/05/28 10:59:20;;;;;;;9.00;1.85;;;;;;;;;;4981730;28;20079;-73
2022/05/28 11:01:50;;;;;;;7.95;1.40;;;;;;;;;;4963300;28;20068;-72
2022/05/28 11:04:29;;;;;;;6.40;1.10;;;;;;;;;;4958237;28;20053;-67
2022/05/28 11:07:12;;;;;;;10.50;1.23;;;;;;;;;;4986212;28;20057;-71
2022/05/28 11:09:46;;;;;;;10.10;1.20;;;;;;;;;;4952866;28;20054;-73
2022/05/28 11:12:30;;;;;;;3.47;1.30;;;;;;;;;;4987995;28;20101;-70
2022/05/28 11:15:03;;;;;;;7.82;1.20;;;;;;;;;;4982685;28;20062;-71
2022/05/28 11:17:37;;;;;;;2.67;0.70;;;;;;;;;;4985558;28;20062;-69
2022/05/28 11:20:13;;;;;;;7.88;1.10;;;;;;;;;;4987645;28;20137;-69
2022/05/28 11:22:54;;;;;;;9.75;1.08;;;;;;;;;;4982902;28;20059;-69
2022/05/28 11:25:26;;;;;;;3.63;0.88;;;;;;;;;;4987427;28;20096;-70
2022/05/28 11:28:04;;;;;;;5.70;0.80;;;;;;;;;;4964472;28;20065;-72
2022/05/28 11:30:34;;;;;;;3.37;0.97;;;;;;;;;;4986255;28;20062;-68
2022/05/28 11:33:03;;;;;;;3.10;0.88;;;;;;;;;;4980497;28;20297;-66
2022/05/28 11:35:38;;;;;;;6.03;1.15;;;;;;;;;;4971185;28;20069;-72
2022/05/28 11:38:07;;;;;;;3.00;0.80;;;;;;;;;;4979917;28;20149;-71
2022/05/28 11:40:39;;;;;;;6.28;1.00;;;;;;;;;;4986926;28;20054;-72
2022/05/28 11:43:07;;;;;;;4.80;1.15;;;;;;;;;;4979882;28;20063;-73
2022/05/28 11:45:41;;;;;;;7.85;0.93;;;;;;;;;;4986591;28;20055;-74
2022/05/28 11:48:09;;;;;;;8.35;1.13;;;;;;;;;;4992368;28;20054;-73
2022/05/28 11:53:25;;;;;;;6.45;0.80;;;;;;;;;;4971096;28;19968;-71
2022/05/28 11:55:55;;;;;;;5.30;1.25;;;;;;;;;;4981459;28;20109;-70
2022/05/28 11:58:25;;;;;;;12.68;1.30;;;;;;;;;;4990160;28;20133;-71
2022/05/28 12:00:54;;;;;;;5.22;0.98;;;;;;;;;;4984118;28;20097;-71
2022/05/28 12:03:20;;;;;;;;;;;;;;;;;;4994652;28;20061;-71
2022/05/28 12:05:50;;;;;;;5.25;0.90;;;;;;;;;;4980088;28;19925;-70
2022/05/28 12:08:27;;;;;;;2.60;1.10;;;;;;;;;;4973321;28;20074;-70
2022/05/28 12:10:58;;;;;;;5.65;1.42;;;;;;;;;;4985279;28;20081;-69
2022/05/28 12:13:35;;;;;;;2.53;1.10;;;;;;;;;;5010464;28;20053;-71
2022/05/28 12:16:10;;;;;;;7.70;1.10;;;;;;;;;;5006375;28;20061;-71
2022/05/28 12:18:39;;;;;;;4.53;0.80;;;;;;;;;;4976751;28;20058;-70
2022/05/28 12:21:07;;;;;;;3.60;0.93;;;;;;;;;;5010535;28;20068;-70
2022/05/28 12:23:35;;;;;;;3.43;0.80;;;;;;;;;;4986914;28;20070;-70
2022/05/28 12:26:15;;;;;;;10.02;1.17;;;;;;;;;;4974814;28;20301;-72
2022/05/28 12:28:48;;;;;;;5.20;1.10;;;;;;;;;;4969385;28;20157;-70
2022/05/28 12:31:25;;;;;;;3.97;0.90;;;;;;;;;;4991937;28;20078;-70
2022/05/28 12:33:53;;;;;;;3.50;0.80;;;;;;;;;;4985748;28;20058;-70
2022/05/28 12:36:23;;;;;;;3.42;0.80;;;;;;;;;;4989624;28;20101;-70
2022/05/28 12:38:53;;;;;;;4.85;1.10;;;;;;;;;;4984800;28;20161;-67
2022/05/28 12:41:23;;;;;;;5.15;1.27;;;;;;;;;;4970231;28;20057;-72
2022/05/28 12:44:02;;;;;;;3.78;0.82;;;;;;;;;;4954229;28;20058;-67
2022/05/28 12:46:38;;;;;;;2.33;0.90;;;;;;;;;;4969525;28;20046;-70
2022/05/28 12:49:06;;;;;;;6.25;1.13;;;;;;;;;;4989891;28;20368;-69
2022/05/28 12:51:37;;;;;;;9.20;1.38;;;;;;;;;;4986534;28;20049;-68
2022/05/28 12:54:04;;;;;;;2.78;0.93;;;;;;;;;;5009399;28;20104;-70
2022/05/28 12:56:43;;;;;;;7.65;1.35;;;;;;;;;;4992033;28;20141;-71
2022/05/28 12:59:11;;;;;;;3.72;1.00;;;;;;;;;;4987852;28;20050;-70
2022/05/28 13:01:39;;;;;;;3.65;1.08;;;;;;;;;;4983583;28;20160;-69
2022/05/28 13:04:08;;;;;;;4.22;0.90;;;;;;;;;;5005323;28;20053;-69
2022/05/28 13:06:39;;;;;;;9.40;1.50;;;;;;;;;;5024811;28;20117;-69
2022/05/28 15:02:32;;;;;;;6.55;1.17;;;;;;;;;;5004460;22;20068;-68
2022/05/28 15:05:13;;;;;;;15.10;1.60;;;;;;;;;;5014082;28;20140;-68
2022/05/28 15:07:44;;;;;;;9.20;1.10;;;;;;;;;;4994515;28;20046;-67
2022/05/28 15:10:21;;;;;;;5.38;1.08;;;;;;;;;;5021814;28;20054;-66
2022/05/28 15:12:47;;;;;;;4.20;1.00;;;;;;;;;;4996093;28;20137;-66
2022/05/28 15:15:16;;;;;;;7.55;0.85;;;;;;;;;;5005435;28;20050;-67
2022/05/28 15:17:44;;;;;;;4.77;1.27;;;;;;;;;;4997420;28;20061;-67
2022/05/28 15:20:11;;;;;;;6.70;1.05;;;;;;;;;;5003923;28;20301;-66
2022/05/28 15:22:38;;;;;;;7.65;1.08;;;;;;;;;;5007537;28;20049;-66
2022/05/28 15:25:05;;;;;;;10.98;1.20;;;;;;;;;;4997678;28;20360;-66
2022/05/28 15:27:32;;;;;;;6.22;1.33;;;;;;;;;;5006193;28;20053;-67
2022/05/28 15:29:59;;;;;;;7.07;1.50;;;;;;;;;;4996322;28;20069;-66
2022/05/28 15:32:28;;;;;;;5.50;1.10;;;;;;;;;;5005265;28;20129;-66
2022/05/28 15:34:57;;;;;;;4.47;1.10;;;;;;;;;;4997827;28;20057;-65
2022/05/28 15:40:09;;;;;;;8.80;1.02;;;;;;;;;;4998814;28;20061;-66
2022/05/28 15:42:37;;;;;;;9.23;1.63;;;;;;;;;;5004114;28;20054;-66
2022/05/28 15:45:05;;;;;;;2.22;1.05;;;;;;;;;;5005566;28;20089;-68
2022/05/28 15:47:32;;;;;;;5.03;0.82;;;;;;;;;;4996351;28;20077;-68
2022/05/28 15:50:00;;;;;;;7.97;1.33;;;;;;;;;;5004056;28;20085;-66
2022/05/28 15:52:27;;;;;;;4.90;1.13;;;;;;;;;;5027228;28;20061;-66
2022/05/28 15:54:53;;;;;;;8.77;1.02;;;;;;;;;;5004566;28;20101;-67
2022/05/28 15:57:20;;;;;;;6.55;1.27;;;;;;;;;;4997357;28;20062;-67
2022/05/28 15:59:47;;;;;;;7.20;1.05;;;;;;;;;;4974200;28;20050;-65
2022/05/28 16:02:16;;;;;;;2.67;0.80;;;;;;;;;;4997811;28;20062;-66
2022/05/28 16:04:47;;;;;;;5.72;1.00;;;;;;;;;;5004309;28;20050;-66
2022/05/28 16:07:25;;;;;;;13.05;1.10;;;;;;;;;;5007706;28;20050;-67
2022/05/28 16:09:59;;;;;;;6.50;1.25;;;;;;;;;;5005913;28;20049;-67
2022/05/28 16:12:26;;;;;;;5.43;1.00;;;;;;;;;;5009645;28;20125;-64
2022/05/28 16:14:53;;;;;;;8.77;1.33;;;;;;;;;;4999379;28;20055;-66
2022/05/28 16:17:20;;;;;;;4.57;0.90;;;;;;;;;;5007904;28;20094;-64
2022/05/28 16:19:47;;;;;;;11.10;1.33;;;;;;;;;;5007514;28;20053;-65
2022/05/28 16:22:14;;;;;;;5.35;1.30;;;;;;;;;;5007825;28;20073;-65
2022/05/28 16:24:42;;;;;;;9.32;1.40;;;;;;;;;;5007650;28;20057;-65
2022/05/28 16:27:08;;;;;;;6.65;1.00;;;;;;;;;;5007868;28;20065;-67
2022/05/28 16:29:37;;;;;;;8.20;1.40;;;;;;;;;;5007044;28;20057;-63
2022/05/28 16:32:04;;;;;;;5.32;1.30;;;;;;;;;;5007269;28;20057;-68
2022/05/28 16:34:31;;;;;;;4.20;0.95;;;;;;;;;;5007074;28;20049;-66
2022/05/28 16:36:57;;;;;;;5.65;1.00;;;;;;;;;;5006996;28;20056;-67
2022/05/28 16:39:24;;;;;;;9.50;1.20;;;;;;;;;;5006938;28;20149;-66
2022/05/28 16:41:52;;;;;;;7.65;1.20;;;;;;;;;;5008168;28;20145;-66
2022/05/28 16:44:19;;;;;;;4.45;1.05;;;;;;;;;;5011287;28;20061;-67
2022/05/28 16:46:46;;;;;;;11.25;1.30;;;;;;;;;;5012185;28;20064;-67
2022/05/28 16:49:14;;;;;;;8.52;1.42;;;;;;;;;;5009808;28;20054;-66
2022/05/28 16:51:40;;;;;;;3.90;0.88;;;;;;;;;;5011091;28;20058;-67
2022/05/28 16:54:08;;;;;;;10.50;1.40;;;;;;;;;;5010264;28;20311;-66
2022/05/28 16:56:36;;;;;;;3.78;1.10;;;;;;;;;;5010399;28;20046;-64
2022/05/28 16:59:05;;;;;;;5.07;1.10;;;;;;;;;;5007720;28;20056;-65